sensor_id;sensor_type;location;lat;lon;timestamp;pressure;altitude;pressure_sealevel;temperature;humidity
50852;BME280;43953;45.508;-122.806;2024-02-15T00:00:14;99863.38;;;23.95;34.14
50852;BME280;43953;45.508;-122.806;2024-02-15T00:00:48;99863.88;;;23.97;34.18
50852;BME280;43953;45.508;-122.806;2024-02-15T00:01:19;99871.31;;;23.96;34.03
50852;BME280;43953;45.508;-122.806;2024-02-15T00:01:51;99869.88;;;23.99;33.95
50852;BME280;43953;45.508;-122.806;2024-02-15T00:02:23;99871.13;;;24.01;34.18
50852;BME280;43953;45.508;-122.806;2024-02-15T00:02:55;99881.03;;;24.02;34.09
50852;BME280;43953;45.508;-122.806;2024-02-15T00:03:29;99866.94;;;24.04;34.15
50852;BME280;43953;45.508;-122.806;2024-02-15T00:04:02;99864.69;;;24.06;33.95
50852;BME280;43953;45.508;-122.806;2024-02-15T00:04:34;99864.69;;;24.06;34.22
50852;BME280;43953;45.508;-122.806;2024-02-15T00:05:06;99851.75;;;24.06;33.94
50852;BME280;43953;45.508;-122.806;2024-02-15T00:05:39;99861.13;;;24.05;34.03
50852;BME280;43953;45.508;-122.806;2024-02-15T00:06:11;99864.69;;;24.06;33.95
50852;BME280;43953;45.508;-122.806;2024-02-15T00:06:43;99869.38;;;24.05;33.89
50852;BME280;43953;45.508;-122.806;2024-02-15T00:07:15;99862.25;;;24.04;34.09
50852;BME280;43953;45.508;-122.806;2024-02-15T00:07:47;99859.03;;;24.02;33.95
50852;BME280;43953;45.508;-122.806;2024-02-15T00:08:20;99870.84;;;24.03;33.96
50852;BME280;43953;45.508;-122.806;2024-02-15T00:08:52;99857.38;;;24.01;33.90
50852;BME280;43953;45.508;-122.806;2024-02-15T00:09:24;99856.28;;;24.02;34.12
50852;BME280;43953;45.508;-122.806;2024-02-15T00:09:56;99862.09;;;24.01;33.99
50852;BME280;43953;45.508;-122.806;2024-02-15T00:10:27;99852.53;;;23.98;33.98
50852;BME280;43953;45.508;-122.806;2024-02-15T00:10:59;99862.41;;;23.99;34.12
50852;BME280;43953;45.508;-122.806;2024-02-15T00:11:31;99863.53;;;23.98;34.12
50852;BME280;43953;45.508;-122.806;2024-02-15T00:12:03;99861.13;;;23.97;34.19
50852;BME280;43953;45.508;-122.806;2024-02-15T00:12:37;99868.56;;;23.96;33.83
50852;BME280;43953;45.508;-122.806;2024-02-15T00:13:10;99870.47;;;23.96;33.96
50852;BME280;43953;45.508;-122.806;2024-02-15T00:13:41;99857.56;;;23.96;34.26
50852;BME280;43953;45.508;-122.806;2024-02-15T00:14:15;99853.50;;;23.94;34.13
50852;BME280;43953;45.508;-122.806;2024-02-15T00:14:48;99843.63;;;23.93;34.27
50852;BME280;43953;45.508;-122.806;2024-02-15T00:15:20;99849.44;;;23.91;34.22
50852;BME280;43953;45.508;-122.806;2024-02-15T00:15:52;99852.19;;;23.91;34.00
50852;BME280;43953;45.508;-122.806;2024-02-15T00:16:23;99853.34;;;23.90;34.28
50852;BME280;43953;45.508;-122.806;2024-02-15T00:16:55;99843.44;;;23.89;34.00
50852;BME280;43953;45.508;-122.806;2024-02-15T00:17:27;99851.69;;;23.89;34.03
50852;BME280;43953;45.508;-122.806;2024-02-15T00:18:04;99847.97;;;23.85;34.01
50852;BME280;43953;45.508;-122.806;2024-02-15T00:18:35;99841.03;;;23.88;34.29
50852;BME280;43953;45.508;-122.806;2024-02-15T00:19:08;99844.91;;;23.87;34.32
50852;BME280;43953;45.508;-122.806;2024-02-15T00:19:39;99840.53;;;23.86;34.23
50852;BME280;43953;45.508;-122.806;2024-02-15T00:20:13;99834.25;;;23.85;34.25
50852;BME280;43953;45.508;-122.806;2024-02-15T00:20:45;99842.47;;;23.85;34.05
50852;BME280;43953;45.508;-122.806;2024-02-15T00:21:17;99847.19;;;23.84;34.34
50852;BME280;43953;45.508;-122.806;2024-02-15T00:21:49;99847.47;;;23.83;34.34
50852;BME280;43953;45.508;-122.806;2024-02-15T00:22:21;99844.72;;;23.83;34.41
50852;BME280;43953;45.508;-122.806;2024-02-15T00:22:53;99850.56;;;23.81;34.26
50852;BME280;43953;45.508;-122.806;2024-02-15T00:23:27;99841.47;;;23.81;34.42
50852;BME280;43953;45.508;-122.806;2024-02-15T00:23:59;99846.97;;;23.81;34.27
50852;BME280;43953;45.508;-122.806;2024-02-15T00:24:31;99841.47;;;23.81;34.21
50852;BME280;43953;45.508;-122.806;2024-02-15T00:25:03;99833.56;;;23.79;34.55
50852;BME280;43953;45.508;-122.806;2024-02-15T00:25:37;99836.63;;;23.78;34.57
50852;BME280;43953;45.508;-122.806;2024-02-15T00:26:09;99833.25;;;23.81;34.34
50852;BME280;43953;45.508;-122.806;2024-02-15T00:26:43;99826.63;;;23.82;34.47
50852;BME280;43953;45.508;-122.806;2024-02-15T00:27:15;99837.63;;;23.82;34.15
50852;BME280;43953;45.508;-122.806;2024-02-15T00:27:47;99837.63;;;23.82;34.63
50852;BME280;43953;45.508;-122.806;2024-02-15T00:28:19;99838.13;;;23.84;34.27
50852;BME280;43953;45.508;-122.806;2024-02-15T00:28:51;99837.00;;;23.85;34.41
50852;BME280;43953;45.508;-122.806;2024-02-15T00:29:23;99835.03;;;23.86;34.32
50852;BME280;43953;45.508;-122.806;2024-02-15T00:29:56;99829.25;;;23.87;34.48
50852;BME280;43953;45.508;-122.806;2024-02-15T00:30:28;99829.72;;;23.89;34.37
50852;BME280;43953;45.508;-122.806;2024-02-15T00:31:00;99830.22;;;23.91;34.15
50852;BME280;43953;45.508;-122.806;2024-02-15T00:31:32;99831.50;;;23.94;34.36
50852;BME280;43953;45.508;-122.806;2024-02-15T00:32:04;99835.06;;;23.94;34.36
50852;BME280;43953;45.508;-122.806;2024-02-15T00:32:37;99824.56;;;23.96;34.40
50852;BME280;43953;45.508;-122.806;2024-02-15T00:33:09;99826.47;;;23.96;34.36
50852;BME280;43953;45.508;-122.806;2024-02-15T00:33:42;99823.44;;;23.97;34.25
50852;BME280;43953;45.508;-122.806;2024-02-15T00:34:14;99828.94;;;23.97;34.19
50852;BME280;43953;45.508;-122.806;2024-02-15T00:34:46;99824.22;;;23.98;34.19
50852;BME280;43953;45.508;-122.806;2024-02-15T00:35:18;99820.19;;;23.95;33.97
50852;BME280;43953;45.508;-122.806;2024-02-15T00:35:50;99828.63;;;23.99;34.16
50852;BME280;43953;45.508;-122.806;2024-02-15T00:36:23;99813.38;;;23.93;34.44
50852;BME280;43953;45.508;-122.806;2024-02-15T00:36:55;99826.81;;;23.94;34.15
50852;BME280;43953;45.508;-122.806;2024-02-15T00:37:27;99832.81;;;23.96;34.04
50852;BME280;43953;45.508;-122.806;2024-02-15T00:37:59;99837.47;;;23.96;34.28
50852;BME280;43953;45.508;-122.806;2024-02-15T00:38:33;99825.69;;;23.95;34.19
50852;BME280;43953;45.508;-122.806;2024-02-15T00:39:06;99829.41;;;23.91;34.02
50852;BME280;43953;45.508;-122.806;2024-02-15T00:39:39;99836.69;;;23.95;34.14
50852;BME280;43953;45.508;-122.806;2024-02-15T00:40:11;99840.22;;;23.96;34.18
50852;BME280;43953;45.508;-122.806;2024-02-15T00:40:43;99832.31;;;23.94;34.24
50852;BME280;43953;45.508;-122.806;2024-02-15T00:41:15;99841.72;;;23.93;34.25
50852;BME280;43953;45.508;-122.806;2024-02-15T00:41:47;99836.22;;;23.93;34.09
50852;BME280;43953;45.508;-122.806;2024-02-15T00:42:19;99827.75;;;23.90;34.28
50852;BME280;43953;45.508;-122.806;2024-02-15T00:42:51;99836.50;;;23.92;34.39
50852;BME280;43953;45.508;-122.806;2024-02-15T00:43:23;99838.75;;;23.90;34.34
50852;BME280;43953;45.508;-122.806;2024-02-15T00:43:55;99833.75;;;23.83;34.46
50852;BME280;43953;45.508;-122.806;2024-02-15T00:44:27;99829.25;;;23.87;34.30
50852;BME280;43953;45.508;-122.806;2024-02-15T00:44:59;99831.66;;;23.89;34.30
50852;BME280;43953;45.508;-122.806;2024-02-15T00:45:31;99833.75;;;23.83;34.39
50852;BME280;43953;45.508;-122.806;2024-02-15T00:46:03;99840.25;;;23.87;34.16
50852;BME280;43953;45.508;-122.806;2024-02-15T00:46:42;99829.88;;;23.84;34.40
50852;BME280;43953;45.508;-122.806;2024-02-15T00:47:14;99824.03;;;23.77;34.27
50852;BME280;43953;45.508;-122.806;2024-02-15T00:47:49;99817.38;;;23.78;34.33
50852;BME280;43953;45.508;-122.806;2024-02-15T00:48:21;99819.81;;;23.79;34.28
50852;BME280;43953;45.508;-122.806;2024-02-15T00:48:53;99827.59;;;23.86;34.24
50852;BME280;43953;45.508;-122.806;2024-02-15T00:49:25;99830.34;;;23.86;34.25
50852;BME280;43953;45.508;-122.806;2024-02-15T00:49:59;99821.94;;;23.82;34.39
50852;BME280;43953;45.508;-122.806;2024-02-15T00:50:31;99828.41;;;23.87;34.10
50852;BME280;43953;45.508;-122.806;2024-02-15T00:51:03;99833.09;;;23.86;34.30
50852;BME280;43953;45.508;-122.806;2024-02-15T00:51:37;99827.59;;;23.86;34.23
50852;BME280;43953;45.508;-122.806;2024-02-15T00:52:09;99822.91;;;23.87;34.16
50852;BME280;43953;45.508;-122.806;2024-02-15T00:52:41;99817.41;;;23.87;33.99
50852;BME280;43953;45.508;-122.806;2024-02-15T00:53:14;99812.75;;;23.87;34.13
50852;BME280;43953;45.508;-122.806;2024-02-15T00:53:48;99817.41;;;23.87;34.23
50852;BME280;43953;45.508;-122.806;2024-02-15T00:54:20;99817.59;;;23.90;34.19
50852;BME280;43953;45.508;-122.806;2024-02-15T00:54:51;99819.72;;;23.93;34.36
50852;BME280;43953;45.508;-122.806;2024-02-15T00:55:23;99822.94;;;23.95;33.99
50852;BME280;43953;45.508;-122.806;2024-02-15T00:55:56;99811.63;;;23.97;34.25
50852;BME280;43953;45.508;-122.806;2024-02-15T00:56:27;99810.00;;;23.96;34.11
50852;BME280;43953;45.508;-122.806;2024-02-15T00:57:01;99808.41;;;24.03;34.11
50852;BME280;43953;45.508;-122.806;2024-02-15T00:57:33;99812.44;;;24.06;33.95
50852;BME280;43953;45.508;-122.806;2024-02-15T00:58:04;99817.81;;;24.11;33.76
50852;BME280;43953;45.508;-122.806;2024-02-15T00:58:36;99803.72;;;24.13;33.99
50852;BME280;43953;45.508;-122.806;2024-02-15T00:59:08;99794.34;;;24.14;34.05
50852;BME280;43953;45.508;-122.806;2024-02-15T00:59:40;99799.69;;;24.19;33.81
50852;BME280;43953;45.508;-122.806;2024-02-15T01:00:13;99794.66;;;24.21;33.88
50852;BME280;43953;45.508;-122.806;2024-02-15T01:00:45;99797.91;;;24.23;34.06
50852;BME280;43953;45.508;-122.806;2024-02-15T01:01:17;99799.53;;;24.24;33.87
50852;BME280;43953;45.508;-122.806;2024-02-15T01:01:49;99802.59;;;24.22;33.80
50852;BME280;43953;45.508;-122.806;2024-02-15T01:02:21;99801.97;;;24.25;34.08
50852;BME280;43953;45.508;-122.806;2024-02-15T01:02:55;99798.38;;;24.25;33.82
50852;BME280;43953;45.508;-122.806;2024-02-15T01:03:27;99792.88;;;24.25;33.70
50852;BME280;43953;45.508;-122.806;2024-02-15T01:03:59;99802.28;;;24.24;33.92
50852;BME280;43953;45.508;-122.806;2024-02-15T01:04:31;99797.09;;;24.22;34.10
50852;BME280;43953;45.508;-122.806;2024-02-15T01:05:03;99799.53;;;24.24;34.07
50852;BME280;43953;45.508;-122.806;2024-02-15T01:05:35;99798.56;;;24.20;33.88
50852;BME280;43953;45.508;-122.806;2024-02-15T01:06:07;99803.72;;;24.21;33.97
50852;BME280;43953;45.508;-122.806;2024-02-15T01:06:39;99802.13;;;24.20;34.00
50852;BME280;43953;45.508;-122.806;2024-02-15T01:07:11;99807.63;;;24.20;33.78
50852;BME280;43953;45.508;-122.806;2024-02-15T01:07:42;99801.63;;;24.18;34.13
50852;BME280;43953;45.508;-122.806;2024-02-15T01:08:14;99796.91;;;24.10;33.87
50852;BME280;43953;45.508;-122.806;2024-02-15T01:08:46;99803.56;;;24.18;33.80
50852;BME280;43953;45.508;-122.806;2024-02-15T01:09:18;99805.66;;;24.12;33.77
50852;BME280;43953;45.508;-122.806;2024-02-15T01:09:50;99806.47;;;24.13;33.86
50852;BME280;43953;45.508;-122.806;2024-02-15T01:10:22;99815.53;;;24.13;34.03
50852;BME280;43953;45.508;-122.806;2024-02-15T01:10:55;99813.41;;;24.10;34.29
50852;BME280;43953;45.508;-122.806;2024-02-15T01:11:28;99814.56;;;24.09;34.24
50852;BME280;43953;45.508;-122.806;2024-02-15T01:12:00;99818.13;;;24.10;34.15
50852;BME280;43953;45.508;-122.806;2024-02-15T01:12:32;99813.75;;;24.09;34.02
50852;BME280;43953;45.508;-122.806;2024-02-15T01:13:04;99801.75;;;24.04;34.05
50852;BME280;43953;45.508;-122.806;2024-02-15T01:13:36;99819.25;;;24.09;34.15
50852;BME280;43953;45.508;-122.806;2024-02-15T01:14:08;99826.34;;;24.10;34.02
50852;BME280;43953;45.508;-122.806;2024-02-15T01:14:40;99827.50;;;24.09;34.12
50852;BME280;43953;45.508;-122.806;2024-02-15T01:15:14;99819.25;;;24.09;34.17
50852;BME280;43953;45.508;-122.806;2024-02-15T01:15:49;99816.81;;;24.07;34.11
50852;BME280;43953;45.508;-122.806;2024-02-15T01:16:21;99824.75;;;24.09;34.16
50852;BME280;43953;45.508;-122.806;2024-02-15T01:16:53;99811.66;;;24.05;34.22
50852;BME280;43953;45.508;-122.806;2024-02-15T01:17:25;99816.00;;;24.06;33.86
50852;BME280;43953;45.508;-122.806;2024-02-15T01:17:57;99814.41;;;24.05;33.99
50852;BME280;43953;45.508;-122.806;2024-02-15T01:18:29;99816.66;;;24.03;33.88
50852;BME280;43953;45.508;-122.806;2024-02-15T01:19:03;99807.59;;;24.03;34.11
50852;BME280;43953;45.508;-122.806;2024-02-15T01:19:34;99805.66;;;24.03;33.88
50852;BME280;43953;45.508;-122.806;2024-02-15T01:20:07;99813.91;;;24.03;34.07
50852;BME280;43953;45.508;-122.806;2024-02-15T01:20:38;99800.47;;;24.02;34.02
50852;BME280;43953;45.508;-122.806;2024-02-15T01:21:10;99805.97;;;24.02;33.81
50852;BME280;43953;45.508;-122.806;2024-02-15T01:21:42;99796.91;;;24.01;33.91
50852;BME280;43953;45.508;-122.806;2024-02-15T01:22:15;99809.03;;;24.00;33.99
50852;BME280;43953;45.508;-122.806;2024-02-15T01:22:47;99792.22;;;23.93;33.63
50852;BME280;43953;45.508;-122.806;2024-02-15T01:23:19;99806.28;;;24.00;33.78
50852;BME280;43953;45.508;-122.806;2024-02-15T01:23:51;99805.16;;;24.01;34.02
50852;BME280;43953;45.508;-122.806;2024-02-15T01:24:25;99807.91;;;24.01;33.92
50852;BME280;43953;45.508;-122.806;2024-02-15T01:24:57;99803.22;;;24.02;33.96
50852;BME280;43953;45.508;-122.806;2024-02-15T01:25:29;99798.84;;;24.01;34.01
50852;BME280;43953;45.508;-122.806;2024-02-15T01:26:01;99807.75;;;24.06;33.86
50852;BME280;43953;45.508;-122.806;2024-02-15T01:26:33;99778.78;;;24.00;33.82
50852;BME280;43953;45.508;-122.806;2024-02-15T01:27:06;99794.97;;;24.11;33.68
50852;BME280;43953;45.508;-122.806;2024-02-15T01:27:38;99800.66;;;24.14;33.61
50852;BME280;43953;45.508;-122.806;2024-02-15T01:28:10;99801.97;;;24.17;33.54
50852;BME280;43953;45.508;-122.806;2024-02-15T01:28:42;99805.19;;;24.19;33.58
50852;BME280;43953;45.508;-122.806;2024-02-15T01:29:14;99802.44;;;24.19;33.69
50852;BME280;43953;45.508;-122.806;2024-02-15T01:29:46;99807.78;;;24.24;33.55
50852;BME280;43953;45.508;-122.806;2024-02-15T01:30:18;99817.00;;;24.28;33.52
50852;BME280;43953;45.508;-122.806;2024-02-15T01:30:50;99808.44;;;24.29;33.73
50852;BME280;43953;45.508;-122.806;2024-02-15T01:31:22;99797.09;;;24.31;33.42
50852;BME280;43953;45.508;-122.806;2024-02-15T01:31:54;99806.97;;;24.32;33.44
50852;BME280;43953;45.508;-122.806;2024-02-15T01:32:26;99807.78;;;24.33;33.51
50852;BME280;43953;45.508;-122.806;2024-02-15T01:32:58;99800.34;;;24.33;33.52
50852;BME280;43953;45.508;-122.806;2024-02-15T01:33:30;99811.69;;;24.32;33.62
50852;BME280;43953;45.508;-122.806;2024-02-15T01:34:03;99798.22;;;24.30;33.45
50852;BME280;43953;45.508;-122.806;2024-02-15T01:34:34;99806.47;;;24.30;33.49
50852;BME280;43953;45.508;-122.806;2024-02-15T01:35:07;99806.81;;;24.28;33.32
50852;BME280;43953;45.508;-122.806;2024-02-15T01:35:39;99803.41;;;24.23;33.70
50852;BME280;43953;45.508;-122.806;2024-02-15T01:36:15;99800.34;;;24.24;33.34
50852;BME280;43953;45.508;-122.806;2024-02-15T01:36:50;99800.66;;;24.23;33.62
50852;BME280;43953;45.508;-122.806;2024-02-15T01:37:22;99805.69;;;24.21;33.54
50852;BME280;43953;45.508;-122.806;2024-02-15T01:37:54;99797.56;;;24.16;33.73
50852;BME280;43953;45.508;-122.806;2024-02-15T01:38:25;99806.81;;;24.20;33.79
50852;BME280;43953;45.508;-122.806;2024-02-15T01:38:57;99801.63;;;24.18;33.75
50852;BME280;43953;45.508;-122.806;2024-02-15T01:39:29;99806.31;;;24.18;33.58
50852;BME280;43953;45.508;-122.806;2024-02-15T01:40:01;99811.81;;;24.18;33.59
50852;BME280;43953;45.508;-122.806;2024-02-15T01:40:33;99808.09;;;24.14;33.77
50852;BME280;43953;45.508;-122.806;2024-02-15T01:41:06;99810.84;;;24.14;33.46
50852;BME280;43953;45.508;-122.806;2024-02-15T01:41:38;99817.47;;;24.13;33.86
50852;BME280;43953;45.508;-122.806;2024-02-15T01:42:10;99810.03;;;24.13;33.49
50852;BME280;43953;45.508;-122.806;2024-02-15T01:42:41;99812.13;;;24.07;33.33
50852;BME280;43953;45.508;-122.806;2024-02-15T01:43:14;99818.59;;;24.12;33.47
50852;BME280;43953;45.508;-122.806;2024-02-15T01:43:46;99817.81;;;24.11;33.58
50852;BME280;43953;45.508;-122.806;2024-02-15T01:44:19;99818.75;;;24.06;33.42
50852;BME280;43953;45.508;-122.806;2024-02-15T01:44:51;99827.16;;;24.10;33.66
50852;BME280;43953;45.508;-122.806;2024-02-15T01:45:24;99816.16;;;24.01;33.51
50852;BME280;43953;45.508;-122.806;2024-02-15T01:45:56;99831.06;;;24.09;33.66
50852;BME280;43953;45.508;-122.806;2024-02-15T01:46:31;99833.00;;;24.09;33.58
50852;BME280;43953;45.508;-122.806;2024-02-15T01:47:03;99812.44;;;24.06;33.54
50852;BME280;43953;45.508;-122.806;2024-02-15T01:47:35;99803.03;;;23.98;33.69
50852;BME280;43953;45.508;-122.806;2024-02-15T01:48:07;99820.69;;;24.06;33.35
50852;BME280;43953;45.508;-122.806;2024-02-15T01:48:40;99815.50;;;24.04;33.54
50852;BME280;43953;45.508;-122.806;2024-02-15T01:49:13;99817.44;;;24.04;33.61
50852;BME280;43953;45.508;-122.806;2024-02-15T01:49:46;99818.25;;;24.04;33.53
50852;BME280;43953;45.508;-122.806;2024-02-15T01:50:21;99809.69;;;23.97;33.61
50852;BME280;43953;45.508;-122.806;2024-02-15T01:50:54;99814.53;;;24.00;33.47
50852;BME280;43953;45.508;-122.806;2024-02-15T01:51:26;99818.91;;;24.01;33.43
50852;BME280;43953;45.508;-122.806;2024-02-15T01:52:00;99816.16;;;24.01;33.67
50852;BME280;43953;45.508;-122.806;2024-02-15T01:52:33;99830.72;;;24.02;33.34
50852;BME280;43953;45.508;-122.806;2024-02-15T01:53:07;99818.91;;;24.01;33.45
50852;BME280;43953;45.508;-122.806;2024-02-15T01:53:41;99816.16;;;24.01;33.37
50852;BME280;43953;45.508;-122.806;2024-02-15T01:54:14;99816.66;;;24.03;33.46
50852;BME280;43953;45.508;-122.806;2024-02-15T01:54:48;99801.28;;;24.02;33.35
50852;BME280;43953;45.508;-122.806;2024-02-15T01:55:22;99813.75;;;24.09;33.45
50852;BME280;43953;45.508;-122.806;2024-02-15T01:55:55;99821.66;;;24.10;33.34
50852;BME280;43953;45.508;-122.806;2024-02-15T01:56:28;99810.03;;;24.13;33.46
50852;BME280;43953;45.508;-122.806;2024-02-15T01:57:02;99817.31;;;24.18;33.38
50852;BME280;43953;45.508;-122.806;2024-02-15T01:57:36;99829.63;;;24.20;33.10
50852;BME280;43953;45.508;-122.806;2024-02-15T01:58:09;99816.69;;;24.21;32.96
50852;BME280;43953;45.508;-122.806;2024-02-15T01:58:42;99812.13;;;24.25;33.07
50852;BME280;43953;45.508;-122.806;2024-02-15T01:59:17;99813.44;;;24.27;33.03
50852;BME280;43953;45.508;-122.806;2024-02-15T01:59:52;99816.34;;;24.31;33.13
50852;BME280;43953;45.508;-122.806;2024-02-15T02:00:24;99810.84;;;24.31;33.13
50852;BME280;43953;45.508;-122.806;2024-02-15T02:00:56;99808.59;;;24.33;33.05
50852;BME280;43953;45.508;-122.806;2024-02-15T02:01:30;99814.91;;;24.34;33.00
50852;BME280;43953;45.508;-122.806;2024-02-15T02:02:06;99818.44;;;24.34;33.31
50852;BME280;43953;45.508;-122.806;2024-02-15T02:02:41;99812.00;;;24.30;33.27
50852;BME280;43953;45.508;-122.806;2024-02-15T02:03:15;99825.09;;;24.33;33.23
50852;BME280;43953;45.508;-122.806;2024-02-15T02:03:47;99817.19;;;24.32;33.24
50852;BME280;43953;45.508;-122.806;2024-02-15T02:04:19;99801.47;;;24.23;33.29
50852;BME280;43953;45.508;-122.806;2024-02-15T02:04:51;99802.59;;;24.22;33.25
50852;BME280;43953;45.508;-122.806;2024-02-15T02:05:23;99815.06;;;24.28;33.12
50852;BME280;43953;45.508;-122.806;2024-02-15T02:05:55;99813.78;;;24.26;33.39
50852;BME280;43953;45.508;-122.806;2024-02-15T02:06:28;99809.38;;;24.25;33.15
50852;BME280;43953;45.508;-122.806;2024-02-15T02:07:01;99807.78;;;24.24;33.38
50852;BME280;43953;45.508;-122.806;2024-02-15T02:07:33;99807.28;;;24.22;33.38
50852;BME280;43953;45.508;-122.806;2024-02-15T02:08:05;99805.69;;;24.21;33.37
50852;BME280;43953;45.508;-122.806;2024-02-15T02:08:40;99804.88;;;24.20;33.39
50852;BME280;43953;45.508;-122.806;2024-02-15T02:09:12;99797.72;;;24.19;33.46
50852;BME280;43953;45.508;-122.806;2024-02-15T02:09:46;99806.31;;;24.18;33.45
50852;BME280;43953;45.508;-122.806;2024-02-15T02:10:19;99803.06;;;24.16;33.11
50852;BME280;43953;45.508;-122.806;2024-02-15T02:10:52;99800.66;;;24.14;33.01
50852;BME280;43953;45.508;-122.806;2024-02-15T02:11:24;99782.19;;;24.06;33.27
50852;BME280;43953;45.508;-122.806;2024-02-15T02:11:57;99797.41;;;24.12;33.35
50852;BME280;43953;45.508;-122.806;2024-02-15T02:12:29;99814.72;;;24.13;33.20
50852;BME280;43953;45.508;-122.806;2024-02-15T02:13:02;99806.81;;;24.11;33.42
50852;BME280;43953;45.508;-122.806;2024-02-15T02:13:34;99816.97;;;24.11;33.13
50852;BME280;43953;45.508;-122.806;2024-02-15T02:14:06;99806.81;;;24.11;33.27
50852;BME280;43953;45.508;-122.806;2024-02-15T02:14:38;99809.84;;;24.10;33.32
50852;BME280;43953;45.508;-122.806;2024-02-15T02:15:10;99808.25;;;24.09;33.27
50852;BME280;43953;45.508;-122.806;2024-02-15T02:15:45;99812.13;;;24.07;33.13
50852;BME280;43953;45.508;-122.806;2024-02-15T02:16:30;99805.00;;;24.06;33.39
50852;BME280;43953;45.508;-122.806;2024-02-15T02:17:15;99804.34;;;24.01;33.14
50852;BME280;43953;45.508;-122.806;2024-02-15T02:17:50;99816.00;;;24.06;33.22
50852;BME280;43953;45.508;-122.806;2024-02-15T02:18:22;99810.84;;;24.05;32.98
50852;BME280;43953;45.508;-122.806;2024-02-15T02:18:55;99819.91;;;24.05;33.31
50852;BME280;43953;45.508;-122.806;2024-02-15T02:19:30;99798.03;;;24.00;33.26
50852;BME280;43953;45.508;-122.806;2024-02-15T02:20:02;99803.53;;;24.00;33.33
50852;BME280;43953;45.508;-122.806;2024-02-15T02:20:39;99808.72;;;24.02;33.31
50852;BME280;43953;45.508;-122.806;2024-02-15T02:21:11;99804.03;;;24.02;33.32
50852;BME280;43953;45.508;-122.806;2024-02-15T02:21:43;99808.41;;;24.03;33.17
50852;BME280;43953;45.508;-122.806;2024-02-15T02:22:16;99802.59;;;24.05;33.37
50852;BME280;43953;45.508;-122.806;2024-02-15T02:22:58;99801.75;;;24.04;33.25
50852;BME280;43953;45.508;-122.806;2024-02-15T02:23:38;99795.31;;;24.09;33.15
50852;BME280;43953;45.508;-122.806;2024-02-15T02:24:14;99796.59;;;24.12;33.22
50852;BME280;43953;45.508;-122.806;2024-02-15T02:25:07;99801.63;;;24.18;32.95
50852;BME280;43953;45.508;-122.806;2024-02-15T02:25:40;99798.56;;;24.20;33.18
50852;BME280;43953;45.508;-122.806;2024-02-15T02:26:13;99796.28;;;24.22;33.08
50852;BME280;43953;45.508;-122.806;2024-02-15T02:26:46;99807.13;;;24.27;33.13
50852;BME280;43953;45.508;-122.806;2024-02-15T02:27:18;99789.50;;;24.28;32.91
50852;BME280;43953;45.508;-122.806;2024-02-15T02:27:52;99799.84;;;24.31;33.08
50852;BME280;43953;45.508;-122.806;2024-02-15T02:28:23;99781.06;;;24.24;33.09
50852;BME280;43953;45.508;-122.806;2024-02-15T02:28:55;99796.78;;;24.33;33.03
50852;BME280;43953;45.508;-122.806;2024-02-15T02:29:27;99797.59;;;24.33;32.96
50852;BME280;43953;45.508;-122.806;2024-02-15T02:30:12;99802.28;;;24.33;32.83
50852;BME280;43953;45.508;-122.806;2024-02-15T02:30:46;99803.44;;;24.32;32.79
50852;BME280;43953;45.508;-122.806;2024-02-15T02:31:18;99795.97;;;24.32;32.80
50852;BME280;43953;45.508;-122.806;2024-02-15T02:31:50;99795.47;;;24.30;32.82
50852;BME280;43953;45.508;-122.806;2024-02-15T02:32:22;99795.00;;;24.28;33.20
50852;BME280;43953;45.508;-122.806;2024-02-15T02:32:54;99798.06;;;24.26;33.10
50852;BME280;43953;45.508;-122.806;2024-02-15T02:33:26;99801.13;;;24.25;32.86
50852;BME280;43953;45.508;-122.806;2024-02-15T02:33:59;99788.22;;;24.17;33.25
50852;BME280;43953;45.508;-122.806;2024-02-15T02:34:32;99799.03;;;24.22;33.29
50852;BME280;43953;45.508;-122.806;2024-02-15T02:35:04;99793.88;;;24.20;33.23
50852;BME280;43953;45.508;-122.806;2024-02-15T02:35:38;99803.56;;;24.18;33.30
50852;BME280;43953;45.508;-122.806;2024-02-15T02:36:11;99799.22;;;24.17;33.25
50852;BME280;43953;45.508;-122.806;2024-02-15T02:36:46;99801.97;;;24.17;33.08
50852;BME280;43953;45.508;-122.806;2024-02-15T02:37:19;99801.47;;;24.15;33.24
50852;BME280;43953;45.508;-122.806;2024-02-15T02:37:51;99810.84;;;24.14;33.30
50852;BME280;43953;45.508;-122.806;2024-02-15T02:38:26;99792.72;;;24.13;33.08
50852;BME280;43953;45.508;-122.806;2024-02-15T02:38:59;99796.13;;;24.10;32.93
50852;BME280;43953;45.508;-122.806;2024-02-15T02:39:31;99789.66;;;24.05;33.15
50852;BME280;43953;45.508;-122.806;2024-02-15T02:40:07;99790.94;;;24.08;33.19
50852;BME280;43953;45.508;-122.806;2024-02-15T02:40:43;99778.78;;;24.00;33.17
50852;BME280;43953;45.508;-122.806;2024-02-15T02:41:16;99789.00;;;24.09;33.36
50852;BME280;43953;45.508;-122.806;2024-02-15T02:41:50;99779.94;;;23.99;33.13
50852;BME280;43953;45.508;-122.806;2024-02-15T02:42:22;99791.59;;;24.05;33.10
50852;BME280;43953;45.508;-122.806;2024-02-15T02:42:55;99773.63;;;23.99;33.32
50852;BME280;43953;45.508;-122.806;2024-02-15T02:43:27;99790.75;;;24.04;33.24
50852;BME280;43953;45.508;-122.806;2024-02-15T02:43:59;99791.09;;;24.03;33.21
50852;BME280;43953;45.508;-122.806;2024-02-15T02:44:31;99788.34;;;24.03;33.03
50852;BME280;43953;45.508;-122.806;2024-02-15T02:45:03;99793.03;;;24.02;33.29
50852;BME280;43953;45.508;-122.806;2024-02-15T02:45:36;99781.38;;;23.97;33.10
50852;BME280;43953;45.508;-122.806;2024-02-15T02:46:12;99793.03;;;24.02;33.35
50852;BME280;43953;45.508;-122.806;2024-02-15T02:46:44;99796.91;;;24.01;33.25
50852;BME280;43953;45.508;-122.806;2024-02-15T02:47:15;99796.91;;;24.01;33.31